Date,TemperatureHighF,TemperatureAvgF,TemperatureLowF,DewpointHighF,DewpointAvgF,DewpointLowF,HumidityHigh,HumidityAvg,HumidityLow,PressureMaxIn,PressureMinIn,WindSpeedMaxMPH,WindSpeedAvgMPH,GustSpeedMaxMPH,PrecipitationSumIn
2013-6-1,73.4,59.3,48.4,55.9,14.6,-35.1,58,30,1,30.32,30.15,7,1,7,0.00
2013-6-2,79.9,61.2,48.2,58.1,17.3,-35.3,56,29,1,30.15,30.10,10,1,10,0.00
2013-6-3,83.7,62.2,47.9,60.6,21.9,-35.4,58,32,1,30.18,30.13,8,1,8,0.00
2013-6-4,101.3,65.9,49.1,65.2,23.3,-34.7,56,30,1,30.20,30.09,8,1,8,0.00
2013-6-5,85.3,66.7,54.0,63.3,37.3,-31.3,56,38,1,30.16,30.08,12,3,12,0.00
2013-6-6,62.5,54.9,50.8,46.9,-19.8,-33.6,56,9,1,30.12,30.07,3,1,3,0.00
2013-6-7,84.8,62.7,53.8,62.0,34.4,-31.6,60,44,1,30.18,30.05,9,3,9,0.00
2013-6-8,84.8,61.2,47.9,57.5,30.3,-34.5,58,39,1,30.22,30.16,10,4,10,0.00
2013-6-9,83.3,61.6,50.2,54.3,24.0,-32.9,59,34,1,30.16,30.09,12,4,12,0.00
2013-6-10,87.3,60.5,44.3,55.8,24.4,-37.8,58,35,1,30.10,29.94,9,3,9,0.00
2013-6-11,74.5,59.9,54.5,54.1,39.9,29.5,59,48,38,30.14,29.97,9,4,9,0.00
2013-6-12,83.0,58.1,48.2,62.1,14.2,-35.3,55,25,1,30.20,30.15,7,2,8,0.00
2013-6-13,85.9,60.1,46.8,58.5,13.1,-36.2,56,28,1,30.23,30.19,8,3,8,0.00
2013-6-14,80.8,59.2,52.0,59.4,-1.0,-33.0,54,15,1,30.29,30.15,8,3,8,0.00
2013-6-15,87.5,64.0,47.9,63.6,16.6,-35.4,53,27,1,30.15,30.00,8,4,8,0.00
2013-6-16,87.3,66.3,54.4,61.1,16.0,-31.2,55,25,1,30.15,30.05,10,4,10,0.00
2013-6-17,96.3,67.9,52.4,66.3,20.0,-32.5,54,28,1,30.15,29.97,8,2,8,0.00
2013-6-18,93.1,65.7,53.8,59.5,13.9,-31.6,54,25,1,30.03,29.96,12,2,12,0.00
2013-6-19,69.3,60.5,52.9,43.0,-8.5,-32.2,44,11,1,30.04,29.95,8,3,8,0.00
2013-6-20,55.4,52.7,51.3,-30.6,-32.3,-33.2,1,1,1,30.15,29.96,13,5,13,0.06
2013-6-21,72.7,58.9,50.9,36.0,-20.4,-33.5,27,4,1,30.23,30.15,6,1,6,0.00
2013-6-22,88.6,66.2,52.2,61.7,13.6,-32.6,51,23,1,30.20,29.96,7,2,7,0.00
2013-6-23,77.4,67.0,55.8,53.7,7.1,-30.3,47,17,1,29.95,29.70,9,4,9,0.00
2013-6-24,70.4,61.1,56.5,-11.9,-26.6,-29.8,3,1,1,29.77,29.64,12,3,12,0.04
2013-6-25,92.0,63.6,54.4,67.0,-7.4,-31.2,51,12,1,29.90,29.74,9,4,9,0.00
2013-6-26,79.6,63.2,54.5,57.7,-10.8,-31.1,49,8,1,30.15,29.90,8,4,9,0.00
2013-6-27,73.4,63.1,57.2,42.7,-22.7,-29.4,33,2,1,30.28,30.11,10,5,10,0.03
2013-6-28,82.6,70.4,57.1,62.3,8.3,-29.5,50,17,1,30.29,30.13,11,3,11,0.00
2013-6-29,85.0,73.1,60.5,64.8,17.4,-27.3,52,20,1,30.18,30.08,11,2,11,0.00
2013-6-30,94.0,77.4,63.7,73.1,29.1,-25.2,53,28,1,30.10,29.94,11,3,11,0.00